createdAt,value
2017-08-09T00:02:42.474Z,81.60
2017-08-09T00:05:46.178Z,82.00
2017-08-09T00:08:49.926Z,80.70
2017-08-09T00:11:53.910Z,80.90
2017-08-09T00:14:57.638Z,81.00
2017-08-09T00:18:01.353Z,81.10
2017-08-09T00:21:05.026Z,81.40
2017-08-09T00:24:08.986Z,81.30
2017-08-09T00:27:12.737Z,81.40
2017-08-09T00:30:16.429Z,81.90
2017-08-09T00:33:20.159Z,80.90
2017-08-09T00:36:23.898Z,79.80
2017-08-09T00:39:27.602Z,78.50
2017-08-09T00:42:31.330Z,79.30
2017-08-09T00:45:35.276Z,79.70
2017-08-09T00:48:39.015Z,80.60
2017-08-09T00:51:42.703Z,81.20
2017-08-09T00:54:46.436Z,79.80
2017-08-09T00:57:49.934Z,79.80
2017-08-09T01:00:53.690Z,79.20
2017-08-09T01:03:57.424Z,78.30
2017-08-09T01:07:01.367Z,79.60
2017-08-09T01:10:05.057Z,78.40
2017-08-09T01:13:08.854Z,78.70
2017-08-09T01:16:12.535Z,80.00
2017-08-09T01:19:16.267Z,79.90
2017-08-09T01:22:19.948Z,80.70
2017-08-09T01:25:23.346Z,78.20
2017-08-09T01:28:27.069Z,79.60
2017-08-09T01:31:30.806Z,79.40
2017-08-09T01:34:34.910Z,78.80
2017-08-09T01:37:38.731Z,78.60
2017-08-09T01:40:42.491Z,78.40
2017-08-09T01:43:46.169Z,77.50
2017-08-09T01:46:49.969Z,79.00
2017-08-09T01:49:53.683Z,79.10
2017-08-09T01:52:57.455Z,79.20
2017-08-09T01:56:01.193Z,81.10
2017-08-09T01:59:04.614Z,80.20
2017-08-09T02:02:08.292Z,80.10
2017-08-09T02:05:11.889Z,79.50
2017-08-09T02:08:15.606Z,78.70
2017-08-09T02:11:19.431Z,79.60
2017-08-09T02:14:23.170Z,78.30
2017-08-09T02:17:26.865Z,79.90
2017-08-09T02:20:30.706Z,78.30
2017-08-09T02:23:34.385Z,78.10
2017-08-09T02:26:38.134Z,78.80
2017-08-09T02:29:41.877Z,79.70
2017-08-09T02:32:45.732Z,80.10
2017-08-09T02:35:49.414Z,79.80
2017-08-09T02:38:53.177Z,80.40
2017-08-09T02:41:56.935Z,80.10
2017-08-09T02:45:00.781Z,79.60
2017-08-09T02:48:04.475Z,81.00
2017-08-09T02:51:08.346Z,80.70
2017-08-09T02:54:12.106Z,80.10
2017-08-09T02:57:15.795Z,79.80
2017-08-09T03:00:19.571Z,80.30
2017-08-09T03:03:23.253Z,80.60
2017-08-09T03:06:27.436Z,81.00
2017-08-09T03:09:31.218Z,80.00
2017-08-09T03:12:34.903Z,80.30
2017-08-09T03:15:38.826Z,80.10
2017-08-09T03:18:42.502Z,80.40
2017-08-09T03:21:46.329Z,79.60
2017-08-09T03:24:50.012Z,80.30
2017-08-09T03:27:53.801Z,81.10
2017-08-09T03:30:57.579Z,81.30
2017-08-09T03:34:01.623Z,81.10
2017-08-09T03:37:05.455Z,81.10
2017-08-09T03:40:09.151Z,82.00
2017-08-09T03:43:12.946Z,80.90
2017-08-09T03:46:16.734Z,82.10
2017-08-09T03:49:20.446Z,83.00
2017-08-09T03:52:24.242Z,83.60
2017-08-09T03:55:27.921Z,82.80
2017-08-09T03:58:31.847Z,82.30
2017-08-09T04:01:35.649Z,82.30
2017-08-09T04:04:39.394Z,81.80
2017-08-09T04:07:43.174Z,81.50
2017-08-09T04:10:46.879Z,82.30
2017-08-09T04:13:50.659Z,82.10
2017-08-09T04:16:54.344Z,81.90
2017-08-09T04:19:58.195Z,81.30
2017-08-09T04:23:01.879Z,82.30
2017-08-09T04:26:05.664Z,83.50
2017-08-09T04:29:09.410Z,83.30
2017-08-09T04:32:12.829Z,82.60
2017-08-09T04:35:16.579Z,82.60
2017-08-09T04:38:20.347Z,83.60
2017-08-09T04:41:24.116Z,84.20
2017-08-09T04:44:27.858Z,84.80
2017-08-09T04:47:31.550Z,84.40
2017-08-09T04:50:35.662Z,83.70
2017-08-09T04:53:39.434Z,83.70
2017-08-09T04:56:43.159Z,84.00
2017-08-09T04:59:46.919Z,84.30
2017-08-09T05:02:51.921Z,84.40
2017-08-09T05:05:55.697Z,84.10
2017-08-09T05:08:59.471Z,84.10
2017-08-09T05:12:03.266Z,84.20
2017-08-09T05:15:07.114Z,83.80
2017-08-09T05:18:10.887Z,83.80
2017-08-09T05:21:14.705Z,83.20
2017-08-09T05:24:18.644Z,84.30
2017-08-09T05:27:22.438Z,84.20
2017-08-09T05:30:26.202Z,84.70
2017-08-09T05:33:29.903Z,85.10
2017-08-09T05:36:33.775Z,83.30
2017-08-09T05:39:37.558Z,83.10
2017-08-09T05:42:41.800Z,83.80
2017-08-09T05:45:45.650Z,84.10
2017-08-09T05:48:49.396Z,82.90
2017-08-09T05:51:53.169Z,82.30
2017-08-09T05:54:57.015Z,82.20
2017-08-09T05:58:00.698Z,80.40
2017-08-09T06:01:04.542Z,80.80
2017-08-09T06:04:08.217Z,80.60
2017-08-09T06:07:12.267Z,80.80
2017-08-09T06:10:15.962Z,81.80
2017-08-09T06:13:19.767Z,80.80
2017-08-09T06:16:24.491Z,80.20
2017-08-09T06:19:28.320Z,79.10
2017-08-09T06:22:32.731Z,77.90
2017-08-09T06:25:36.538Z,79.40
2017-08-09T06:28:40.425Z,77.80
2017-08-09T06:31:44.207Z,76.40
2017-08-09T06:34:47.951Z,74.90
2017-08-09T06:37:51.734Z,76.30
2017-08-09T06:40:55.466Z,75.40
2017-08-09T06:43:59.254Z,75.70
2017-08-09T06:47:02.975Z,73.90
2017-08-09T06:50:06.832Z,73.30
2017-08-09T06:53:10.830Z,73.90
2017-08-09T06:56:14.636Z,74.70
2017-08-09T06:59:18.504Z,74.70
2017-08-09T07:02:22.290Z,74.60
2017-08-09T07:05:26.027Z,73.40
2017-08-09T07:08:29.818Z,73.80
2017-08-09T07:11:33.683Z,73.90
2017-08-09T07:14:37.490Z,72.70
2017-08-09T07:17:41.259Z,72.10
2017-08-09T07:20:45.447Z,73.50
2017-08-09T07:23:49.205Z,73.40
2017-08-09T07:26:53.009Z,69.50
2017-08-09T07:29:56.899Z,70.70
2017-08-09T07:33:00.902Z,69.80
2017-08-09T07:36:04.584Z,69.90
2017-08-09T07:39:09.413Z,69.20
2017-08-09T07:42:13.102Z,69.00
2017-08-09T07:45:16.953Z,67.80
2017-08-09T07:48:20.655Z,68.20
2017-08-09T07:51:24.461Z,67.50
2017-08-09T07:54:28.213Z,66.20
2017-08-09T07:57:32.062Z,66.70
2017-08-09T08:00:35.410Z,67.20
2017-08-09T08:03:39.273Z,64.50
2017-08-09T08:06:42.959Z,65.40
2017-08-09T08:09:46.761Z,65.80
2017-08-09T08:12:50.441Z,66.20
2017-08-09T08:15:54.254Z,63.80
2017-08-09T08:18:58.108Z,62.20
2017-08-09T08:22:01.935Z,61.40
2017-08-09T08:25:05.648Z,61.70
2017-08-09T08:28:09.403Z,60.20
2017-08-09T08:31:13.246Z,59.70
2017-08-09T08:34:17.323Z,59.80
2017-08-09T08:40:51.079Z,60.30
2017-08-09T08:44:07.045Z,59.10
2017-08-09T08:47:17.364Z,57.70
2017-08-09T08:50:21.492Z,58.00
2017-08-09T08:53:35.832Z,57.10
2017-08-09T08:56:39.631Z,54.20
2017-08-09T08:59:54.814Z,56.10
2017-08-09T09:06:45.823Z,55.70
2017-08-09T09:09:58.819Z,54.80
2017-08-09T09:13:02.671Z,54.70
2017-08-09T09:16:06.467Z,56.10
2017-08-09T09:19:22.215Z,54.10
2017-08-09T09:22:25.995Z,54.90
2017-08-09T09:25:35.853Z,54.60
2017-08-09T09:28:53.727Z,53.30
2017-08-09T09:31:57.684Z,53.00
2017-08-09T09:35:01.226Z,54.10
2017-08-09T09:38:04.953Z,53.40
2017-08-09T09:41:08.475Z,53.40
2017-08-09T09:47:41.015Z,53.00
2017-08-09T10:08:08.537Z,50.80
2017-08-09T10:11:11.953Z,51.60
2017-08-09T10:14:15.417Z,51.60
2017-08-09T10:21:04.520Z,50.00
2017-08-09T10:24:07.946Z,50.40
2017-08-09T10:34:01.784Z,48.80
2017-08-09T10:37:05.258Z,48.80
2017-08-09T10:40:08.712Z,47.80
2017-08-09T10:43:24.499Z,47.80
2017-08-09T10:46:27.970Z,47.70
2017-08-09T10:49:49.306Z,47.80
2017-08-09T10:53:02.505Z,48.90
2017-08-09T10:59:50.424Z,46.20
2017-08-09T11:02:53.965Z,47.60
2017-08-09T11:05:59.446Z,45.90
2017-08-09T11:09:02.973Z,46.70
2017-08-09T11:18:58.480Z,47.80
2017-08-09T11:22:13.315Z,45.20
2017-08-09T11:25:17.239Z,44.40
2017-08-09T11:35:17.996Z,46.80
2017-08-09T11:38:21.535Z,45.20
2017-08-09T11:41:29.632Z,46.10
2017-08-09T11:44:45.252Z,45.90
2017-08-09T11:48:06.548Z,45.80
2017-08-09T11:51:09.972Z,43.20
2017-08-09T11:54:13.559Z,43.30
2017-08-09T11:57:19.022Z,42.40
2017-08-09T12:00:22.862Z,43.50
2017-08-09T12:06:52.251Z,42.90
2017-08-09T12:10:03.123Z,42.40
2017-08-09T12:13:06.551Z,43.50
2017-08-09T12:23:11.983Z,46.50
2017-08-09T12:26:15.408Z,45.90
2017-08-09T12:29:23.855Z,45.50
2017-08-09T12:32:27.303Z,45.40
2017-08-09T12:39:13.881Z,45.60
2017-08-09T12:42:18.021Z,45.10
2017-08-09T12:45:42.030Z,46.20
2017-08-09T12:48:45.565Z,45.30
2017-08-09T12:51:49.003Z,45.40
2017-08-09T12:54:58.976Z,44.40
2017-08-09T12:58:02.407Z,44.80
2017-08-09T13:01:05.959Z,44.40
2017-08-09T13:04:09.500Z,42.30
2017-08-09T13:10:48.655Z,41.50
2017-08-09T13:13:52.311Z,44.60
2017-08-09T13:17:05.068Z,44.70
2017-08-09T13:20:08.497Z,43.60
2017-08-09T13:26:38.400Z,43.70
2017-08-09T13:29:41.974Z,40.80
2017-08-09T13:43:03.108Z,43.90
2017-08-09T13:56:51.612Z,44.50
2017-08-09T13:59:55.043Z,42.70
2017-08-09T14:06:37.179Z,42.50
2017-08-09T14:09:40.737Z,42.70
2017-08-09T14:12:50.063Z,40.10
2017-08-09T14:15:53.566Z,43.60
2017-08-09T14:19:17.696Z,44.10
2017-08-09T14:22:21.187Z,41.60
2017-08-09T14:36:03.927Z,42.40
2017-08-09T14:39:07.363Z,42.90
2017-08-09T14:42:25.815Z,41.30
2017-08-09T14:45:29.334Z,43.70
2017-08-09T14:51:59.277Z,42.50
2017-08-09T14:55:02.801Z,43.50
2017-08-09T15:05:17.999Z,40.00
2017-08-09T15:08:21.517Z,40.10
2017-08-09T17:09:21.159Z,45.40
2017-08-09T18:11:16.330Z,53.70
2017-08-09T18:14:24.828Z,53.90
2017-08-09T18:17:30.363Z,54.00
2017-08-09T18:20:33.794Z,54.40
2017-08-09T18:27:10.517Z,54.00
2017-08-09T18:30:14.039Z,54.50
2017-08-09T18:33:39.425Z,54.70
2017-08-09T18:36:42.975Z,54.40
2017-08-09T18:39:48.411Z,54.70
2017-08-09T18:42:55.899Z,55.20
2017-08-09T19:06:55.108Z,55.40
2017-08-09T19:09:58.650Z,55.60
2017-08-09T19:13:08.079Z,55.80
2017-08-09T19:16:11.589Z,55.80
2017-08-09T19:19:20.104Z,56.10
2017-08-09T19:22:23.640Z,55.80
2017-08-09T19:25:27.160Z,56.10
2017-08-09T19:28:34.283Z,56.40
2017-08-09T19:31:37.855Z,56.60
2017-08-09T19:34:41.282Z,56.50
2017-08-09T19:37:44.814Z,57.00
2017-08-09T19:40:48.284Z,57.30
2017-08-09T19:43:52.186Z,57.30
2017-08-09T19:46:55.698Z,56.70
2017-08-09T19:49:59.534Z,56.00
2017-08-09T19:53:03.403Z,56.60
2017-08-09T19:56:06.933Z,56.80
2017-08-09T19:59:10.454Z,57.10
2017-08-09T20:02:14.018Z,57.40
2017-08-09T20:05:17.502Z,57.30
2017-08-09T20:08:21.015Z,57.10
2017-08-09T20:11:37.558Z,58.60
2017-08-09T20:14:41.090Z,57.40
2017-08-09T20:21:10.073Z,59.80
2017-08-09T20:24:13.523Z,59.10
2017-08-09T20:27:17.035Z,58.70
2017-08-09T20:30:20.531Z,58.10
2017-08-09T20:33:24.062Z,58.50
2017-08-09T20:36:27.639Z,58.90
2017-08-09T20:39:32.149Z,58.60
2017-08-09T20:42:35.826Z,58.40
2017-08-09T20:45:39.326Z,58.40
2017-08-09T20:48:43.069Z,59.00
2017-08-09T20:51:46.849Z,58.00
2017-08-09T20:54:50.810Z,57.60
2017-08-09T20:57:54.607Z,57.80
2017-08-09T21:00:58.311Z,58.20
2017-08-09T21:04:02.074Z,58.30
2017-08-09T21:07:06.213Z,57.40
2017-08-09T21:10:09.962Z,55.90
2017-08-09T21:13:13.740Z,55.30
2017-08-09T21:16:17.543Z,55.00
2017-08-09T21:19:21.371Z,55.10
2017-08-09T21:22:25.141Z,55.10
2017-08-09T21:25:28.770Z,56.70
2017-08-09T21:28:32.517Z,56.90
2017-08-09T21:31:36.370Z,57.40
2017-08-09T21:34:40.499Z,57.00
2017-08-09T21:37:44.387Z,57.30
2017-08-09T21:40:48.187Z,56.80
2017-08-09T21:43:52.821Z,57.00
2017-08-09T21:46:56.635Z,55.50
2017-08-09T21:50:00.330Z,56.30
2017-08-09T21:53:04.082Z,54.70
2017-08-09T21:56:07.758Z,54.80
2017-08-09T21:59:11.558Z,55.20
2017-08-09T22:02:15.752Z,54.70
2017-08-09T22:05:19.530Z,54.90
2017-08-09T22:08:22.970Z,55.00
2017-08-09T22:11:26.719Z,54.40
2017-08-09T22:14:30.490Z,54.90
2017-08-09T22:17:34.180Z,56.40
2017-08-09T22:20:38.078Z,58.00
2017-08-09T22:23:41.865Z,59.10
2017-08-09T22:26:45.626Z,61.00
2017-08-09T22:29:49.419Z,64.60
2017-08-09T22:32:53.119Z,68.20
2017-08-09T22:35:56.898Z,70.80
2017-08-09T22:39:00.747Z,71.80
2017-08-09T22:42:04.486Z,69.80
2017-08-09T22:45:08.311Z,68.10
2017-08-09T22:48:12.102Z,68.60
2017-08-09T22:51:15.859Z,67.60
2017-08-09T22:54:19.661Z,64.90
2017-08-09T22:57:23.494Z,64.10
2017-08-09T23:00:27.266Z,65.00
2017-08-09T23:03:31.203Z,66.30
2017-08-09T23:06:34.882Z,67.70
2017-08-09T23:09:38.726Z,68.30
2017-08-09T23:12:42.421Z,70.90
2017-08-09T23:15:46.235Z,71.60
2017-08-09T23:18:50.014Z,72.60
2017-08-09T23:21:53.837Z,70.90
2017-08-09T23:24:57.940Z,71.00
2017-08-09T23:28:01.798Z,71.60
2017-08-09T23:31:05.502Z,72.00
2017-08-09T23:34:09.282Z,70.70
2017-08-09T23:37:13.055Z,73.40
2017-08-09T23:40:16.886Z,74.10
2017-08-09T23:43:20.675Z,75.40
2017-08-09T23:46:24.502Z,74.70
2017-08-09T23:49:28.315Z,73.90
2017-08-09T23:52:32.354Z,73.90
2017-08-09T23:55:36.152Z,74.10
2017-08-09T23:58:39.831Z,76.00
